Time;durP1;ratioP1;P1;durP2;ratioP2;P2;SDS_P1;SDS_P2;PMS_P1;PMS_P2;Temp;Humidity;BMP_temperature;BMP_pressure;BME280_temperature;BME280_humidity;BME280_pressure;Samples;Min_cycle;Max_cycle;Signal;HPM_P1;HPM_P2
2022/09/20 00:00:30;;;;;;;8.57;2.57;;;;;;;12.19;64.69;101605.22;4871024;28;105293;-48
2022/09/20 00:02:56;;;;;;;5.30;1.97;;;;;;;12.16;64.85;101603.41;4888779;28;97343;-49
2022/09/20 00:05:21;;;;;;;3.83;2.10;;;;;;;12.15;64.77;101604.66;4892755;28;97097;-50
2022/09/20 00:07:46;;;;;;;3.97;2.50;;;;;;;12.13;64.92;101605.13;4878366;28;100358;-54
2022/09/20 00:10:12;;;;;;;3.43;2.00;;;;;;;12.11;64.87;101607.63;4883135;28;112513;-52
2022/09/20 00:12:38;;;;;;;5.70;2.00;;;;;;;12.09;64.76;101612.84;4879300;28;96657;-50
2022/09/20 00:15:04;;;;;;;3.37;1.70;;;;;;;12.07;64.80;101604.31;4882204;28;102828;-50
2022/09/20 00:17:29;;;;;;;2.57;1.40;;;;;;;12.06;64.88;101619.31;4886570;28;98576;-49
2022/09/20 00:19:55;;;;;;;7.93;1.50;;;;;;;12.03;64.82;101614.78;4877658;28;109921;-48
2022/09/20 00:22:20;;;;;;;1.07;1.00;;;;;;;12.00;64.68;101610.22;4887710;28;97563;-48
2022/09/20 00:24:46;;;;;;;3.10;1.30;;;;;;;11.99;64.81;101612.19;4888722;28;100348;-50
2022/09/20 00:27:11;;;;;;;3.97;1.37;;;;;;;11.98;64.78;101609.94;4875537;28;98860;-48
2022/09/20 00:29:37;;;;;;;2.13;1.67;;;;;;;11.96;64.68;101606.91;4890347;28;97158;-50
2022/09/20 00:32:02;;;;;;;5.97;2.40;;;;;;;11.93;64.76;101613.34;4885398;28;101553;-51
2022/09/20 00:37:11;;;;;;;5.93;3.13;;;;;;;11.88;64.81;101611.28;4885277;28;101275;-50
2022/09/20 00:39:36;;;;;;;4.30;2.97;;;;;;;11.88;64.99;101616.81;4885360;28;117652;-49
2022/09/20 00:42:02;;;;;;;4.57;2.73;;;;;;;11.89;64.83;101616.31;4897031;28;106686;-50
2022/09/20 00:44:49;;;;;;;2.60;2.30;;;;;;;11.89;64.91;101612.78;4892611;28;97420;-49
2022/09/20 00:47:36;;;;;;;3.40;1.90;;;;;;;11.87;65.13;101615.28;4887863;28;101142;-49
2022/09/20 00:50:21;;;;;;;6.20;1.80;;;;;;;11.86;65.14;101614.50;4886329;28;103142;-50
2022/09/20 00:52:53;;;;;;;2.47;1.57;;;;;;;11.86;64.91;101613.78;4874437;28;96934;-50
2022/09/20 00:55:19;;;;;;;7.10;1.30;;;;;;;11.84;65.10;101611.47;4891722;28;97193;-51
2022/09/20 00:57:45;;;;;;;1.40;1.30;;;;;;;11.84;64.99;101614.22;4891330;28;97162;-49
2022/09/20 01:00:11;;;;;;;4.27;1.40;;;;;;;11.83;65.06;101618.22;4878320;28;97264;-50
2022/09/20 01:02:41;;;;;;;2.07;0.73;;;;;;;11.82;64.98;101622.22;4889476;28;97208;-50
2022/09/20 01:05:08;;;;;;;2.10;1.00;;;;;;;11.83;64.95;101629.25;4872630;28;98988;-48
2022/09/20 01:07:34;;;;;;;17.83;1.23;;;;;;;11.80;65.11;101627.44;4885432;28;97647;-48
2022/09/20 01:09:59;;;;;;;0.80;0.77;;;;;;;11.82;65.17;101630.47;4889291;28;97594;-51
2022/09/20 01:12:29;;;;;;;1.63;1.40;;;;;;;11.81;64.87;101626.22;4882927;28;97080;-48
2022/09/20 01:14:57;;;;;;;0.80;0.80;;;;;;;11.80;65.06;101626.69;4892988;28;97396;-48
2022/09/20 01:17:25;;;;;;;1.20;0.87;;;;;;;11.80;65.15;101626.69;4892825;28;96807;-49
2022/09/20 01:20:14;;;;;;;4.47;0.80;;;;;;;11.79;65.09;101625.19;4882972;28;101313;-49
2022/09/20 01:22:49;;;;;;;1.00;0.80;;;;;;;11.76;64.93;101626.88;4883151;28;96894;-50
2022/09/20 01:25:26;;;;;;;0.80;0.80;;;;;;;11.76;65.09;101626.13;4887982;28;96848;-50
2022/09/20 01:27:53;;;;;;;2.60;0.93;;;;;;;11.74;65.08;101623.09;4881263;28;98317;-50
2022/09/20 01:30:21;;;;;;;2.07;0.87;;;;;;;11.74;64.94;101618.34;4886958;28;97189;-49
2022/09/20 01:32:58;;;;;;;2.80;0.97;;;;;;;11.71;64.93;101635.81;4889626;28;97289;-49
2022/09/20 01:35:27;;;;;;;2.57;0.80;;;;;;;11.69;65.08;101627.25;4885201;28;96895;-50
2022/09/20 01:38:26;;;;;;;1.00;0.87;;;;;;;11.68;65.04;101625.75;4889271;28;97179;-49
2022/09/20 01:40:58;;;;;;;1.73;1.10;;;;;;;11.68;65.00;101631.28;4889510;28;100855;-49
2022/09/20 01:43:39;;;;;;;0.90;0.63;;;;;;;11.66;65.08;101633.72;4878156;28;97358;-49
2022/09/20 01:46:29;;;;;;;1.73;0.80;;;;;;;11.65;65.21;101625.91;4884202;28;97048;-49
2022/09/20 01:49:37;;;;;;;1.10;0.60;;;;;;;11.64;65.20;101629.91;4888753;28;100710;-49
2022/09/20 01:52:13;;;;;;;3.47;0.93;;;;;;;11.63;65.16;101633.88;4888740;28;101619;-49
2022/09/20 01:54:38;;;;;;;1.13;1.00;;;;;;;11.63;65.14;101633.88;4882465;28;96995;-49
2022/09/20 01:57:42;;;;;;;3.80;0.70;;;;;;;11.62;65.11;101637.91;4884232;28;97345;-49
2022/09/20 02:00:24;;;;;;;3.70;1.00;;;;;;;11.59;65.00;101634.09;4880305;28;100308;-49
2022/09/20 02:02:59;;;;;;;1.50;0.80;;;;;;;11.55;65.00;101644.53;4873520;28;97579;-49
2022/09/20 02:06:15;;;;;;;1.27;0.67;;;;;;;11.51;65.18;101643.94;4891387;28;97753;-49
2022/09/20 02:08:49;;;;;;;5.47;0.80;;;;;;;11.47;65.20;101635.13;4884284;28;97514;-49
2022/09/20 02:11:17;;;;;;;1.83;0.87;;;;;;;11.46;65.14;101641.09;4880125;28;102005;-49
2022/09/20 02:14:02;;;;;;;0.80;0.80;;;;;;;11.46;65.17;101641.09;4883073;28;98192;-49
2022/09/20 02:17:05;;;;;;;5.10;1.30;;;;;;;11.45;65.20;101645.84;4888420;28;97131;-49
2022/09/20 02:20:05;;;;;;;5.43;1.80;;;;;;;11.44;65.28;101655.38;4879590;28;96855;-50
2022/09/20 02:23:12;;;;;;;5.80;1.13;;;;;;;11.42;65.15;101652.34;4873523;28;101995;-50
2022/09/20 02:26:13;;;;;;;1.20;1.10;;;;;;;11.41;65.29;101645.28;4881537;28;101601;-50
2022/09/20 02:28:53;;;;;;;1.67;1.47;;;;;;;11.41;65.24;101656.31;4875002;28;96993;-50
2022/09/20 02:31:46;;;;;;;1.30;0.70;;;;;;;11.42;65.23;101651.56;4885134;28;97005;-50
2022/09/20 02:34:36;;;;;;;2.50;0.77;;;;;;;11.41;65.30;101661.03;4889416;28;101213;-50
2022/09/20 02:37:14;;;;;;;2.67;0.90;;;;;;;11.41;65.17;101656.31;4881364;28;101386;-50
2022/09/20 02:40:01;;;;;;;1.00;0.77;;;;;;;11.43;65.10;101659.34;4882467;28;96921;-50
2022/09/20 02:42:36;;;;;;;0.80;0.50;;;;;;;11.44;65.16;101660.88;4891243;28;96760;-50
2022/09/20 02:45:26;;;;;;;0.97;0.70;;;;;;;11.47;65.49;101662.66;4865818;28;98603;-49
2022/09/20 02:47:59;;;;;;;2.00;1.13;;;;;;;11.49;65.28;101662.97;4885564;28;100243;-51
2022/09/20 02:50:37;;;;;;;2.30;0.70;;;;;;;11.52;65.32;101661.25;4879321;28;96773;-49
2022/09/20 02:53:36;;;;;;;2.07;0.90;;;;;;;11.54;65.54;101670.56;4874147;28;97323;-50
2022/09/20 02:56:19;;;;;;;2.50;0.90;;;;;;;11.55;65.55;101666.59;4885300;28;97607;-48
2022/09/20 02:59:10;;;;;;;2.40;0.80;;;;;;;11.61;65.66;101661.94;4890249;28;101722;-50
2022/09/20 03:01:59;;;;;;;4.10;0.90;;;;;;;11.63;65.66;101661.44;4870353;28;96992;-50
2022/09/20 03:04:34;;;;;;;0.93;0.93;;;;;;;11.68;65.48;101660.81;4880285;28;97095;-48
2022/09/20 03:07:16;;;;;;;1.77;1.17;;;;;;;11.72;65.56;101664.16;4883829;28;97750;-50
2022/09/20 03:10:09;;;;;;;0.70;0.70;;;;;;;11.75;65.53;101663.22;4874698;28;97451;-51
2022/09/20 03:12:54;;;;;;;2.10;1.20;;;;;;;11.75;65.40;101669.47;4861127;28;97417;-52
2022/09/20 03:15:31;;;;;;;4.37;1.17;;;;;;;11.79;65.35;101674.81;4865288;28;96971;-50
2022/09/20 03:18:30;;;;;;;2.20;1.20;;;;;;;11.83;65.77;101667.88;4880394;28;96963;-50
2022/09/20 03:21:21;;;;;;;3.40;1.60;;;;;;;11.86;66.02;101672.41;4872344;28;99965;-50
2022/09/20 03:24:02;;;;;;;2.07;1.50;;;;;;;11.92;65.73;101673.28;4883333;28;97219;-48
2022/09/20 03:26:55;;;;;;;2.13;1.20;;;;;;;11.96;65.71;101679.38;4889892;28;97203;-49
2022/09/20 03:29:36;;;;;;;2.83;1.60;;;;;;;11.99;65.56;101678.38;4871586;28;97588;-50
2022/09/20 03:32:27;;;;;;;4.50;1.87;;;;;;;12.03;65.77;101672.69;4891900;28;102355;-50
2022/09/20 03:35:14;;;;;;;4.23;1.30;;;;;;;12.06;66.01;101682.75;4896168;28;96908;-48
2022/09/20 03:37:57;;;;;;;2.20;1.43;;;;;;;12.09;65.85;101681.06;4890555;28;97412;-50
2022/09/20 03:40:59;;;;;;;1.97;1.40;;;;;;;12.13;65.78;101682.38;4883802;28;100641;-50
2022/09/20 03:43:50;;;;;;;5.10;1.67;;;;;;;12.17;65.77;101682.16;4879083;28;101635;-51
2022/09/20 03:46:38;;;;;;;2.60;1.33;;;;;;;12.21;66.00;101688.28;4886344;28;96781;-50
2022/09/20 03:49:42;;;;;;;3.70;1.70;;;;;;;12.25;65.89;101688.84;4878378;28;97077;-47
2022/09/20 03:52:38;;;;;;;1.50;1.40;;;;;;;12.28;65.84;101693.38;4889049;28;103456;-51
2022/09/20 03:55:25;;;;;;;5.07;1.83;;;;;;;12.29;65.67;101692.94;4869653;28;96690;-50
2022/09/20 03:57:53;;;;;;;2.20;1.83;;;;;;;12.32;65.58;101689.19;4867900;28;97330;-51
2022/09/20 04:00:43;;;;;;;7.17;2.27;;;;;;;12.36;65.82;101695.25;4889328;28;96881;-50
2022/09/20 04:03:35;;;;;;;3.17;1.90;;;;;;;12.40;65.83;101686.81;4869813;28;101592;-50
2022/09/20 04:06:03;;;;;;;9.87;2.50;;;;;;;12.43;65.53;101688.59;4877402;28;103792;-53
2022/09/20 04:09:06;;;;;;;4.47;2.20;;;;;;;12.45;65.96;101694.41;4874271;28;96986;-50
2022/09/20 04:11:56;;;;;;;4.57;2.50;;;;;;;12.46;65.81;101690.41;4875825;28;97123;-50
2022/09/20 04:14:40;;;;;;;5.53;2.10;;;;;;;12.47;65.94;101691.94;4872980;28;100680;-49
2022/09/20 04:17:37;;;;;;;6.87;2.40;;;;;;;12.49;65.85;101700.50;4879323;28;97060;-50
2022/09/20 04:20:55;;;;;;;4.53;2.30;;;;;;;12.48;66.22;101696.97;4883557;28;97287;-50
2022/09/20 04:23:52;;;;;;;2.50;2.10;;;;;;;12.51;66.04;101693.25;4884519;28;97288;-49
2022/09/20 04:26:29;;;;;;;4.10;1.90;;;;;;;12.50;65.99;101697.25;4878062;28;102034;-50
2022/09/20 04:29:00;;;;;;;2.03;1.80;;;;;;;12.50;65.91;101702.75;4868933;28;96943;-51
2022/09/20 04:31:39;;;;;;;3.13;2.00;;;;;;;12.52;66.15;101705.03;4885665;28;97479;-48
2022/09/20 04:34:14;;;;;;;2.83;2.47;;;;;;;12.51;65.80;101706.28;4868213;28;97405;-50
2022/09/20 04:36:56;;;;;;;3.97;2.60;;;;;;;12.55;66.14;101709.59;4886752;28;97425;-51
2022/09/20 04:39:48;;;;;;;2.83;2.43;;;;;;;12.55;66.07;101715.13;4887053;28;100335;-51
2022/09/20 04:42:22;;;;;;;2.63;2.40;;;;;;;12.58;65.97;101708.66;4885194;28;97080;-48
2022/09/20 04:44:54;;;;;;;2.57;2.10;;;;;;;12.60;65.98;101717.22;4891088;28;97184;-48
2022/09/20 04:47:41;;;;;;;5.17;2.83;;;;;;;12.62;65.79;101715.47;4871835;28;97923;-51
2022/09/20 04:50:28;;;;;;;3.80;2.70;;;;;;;12.59;65.92;101719.22;4887721;28;100076;-50
2022/09/20 04:53:02;;;;;;;3.03;2.20;;;;;;;12.62;65.88;101723.75;4889177;28;96847;-50
2022/09/20 04:55:52;;;;;;;4.63;2.10;;;;;;;12.63;66.15;101727.28;4878029;28;96755;-50
2022/09/20 04:58:48;;;;;;;3.60;1.70;;;;;;;12.64;66.08;101731.59;4887528;28;100551;-50
2022/09/20 05:01:35;;;;;;;2.00;1.80;;;;;;;12.63;65.78;101727.28;4883953;28;100051;-50
2022/09/20 05:04:39;;;;;;;2.87;1.80;;;;;;;12.63;65.97;101728.06;4880849;28;97243;-50
2022/09/20 05:07:35;;;;;;;7.20;2.47;;;;;;;12.64;65.84;101731.59;4884077;28;96956;-50
2022/09/20 05:10:23;;;;;;;2.50;1.50;;;;;;;12.64;65.77;101739.88;4875243;28;101923;-51
2022/09/20 05:13:13;;;;;;;2.30;1.53;;;;;;;12.66;65.94;101745.66;4891550;28;101680;-50
2022/09/20 05:15:48;;;;;;;2.07;1.37;;;;;;;12.66;65.90;101751.94;4879746;28;96946;-50
2022/09/20 05:18:36;;;;;;;3.50;1.70;;;;;;;12.67;65.89;101745.19;4875949;28;96988;-50
2022/09/20 05:21:36;;;;;;;2.00;1.60;;;;;;;12.68;65.97;101755.00;4894911;28;100500;-48
2022/09/20 05:24:26;;;;;;;4.77;1.27;;;;;;;12.69;66.13;101761.25;4894674;28;101563;-50
2022/09/20 05:27:03;;;;;;;3.23;1.60;;;;;;;12.69;66.04;101756.50;4894982;28;97441;-50
2022/09/20 05:29:48;;;;;;;2.73;1.37;;;;;;;12.70;65.95;101751.75;4877847;28;97156;-50
2022/09/20 05:32:18;;;;;;;3.90;1.60;;;;;;;12.70;66.08;101760.78;4892683;28;101813;-50
2022/09/20 05:35:03;;;;;;;1.73;1.43;;;;;;;12.70;65.98;101757.25;4877330;28;100296;-50
2022/09/20 05:37:35;;;;;;;5.50;1.47;;;;;;;12.75;65.94;101754.56;4889109;28;97158;-50
2022/09/20 05:40:31;;;;;;;1.63;1.07;;;;;;;12.79;65.89;101770.97;4878090;28;96933;-49
2022/09/20 05:43:25;;;;;;;3.37;1.40;;;;;;;12.81;66.07;101768.47;4866749;28;100565;-50
2022/09/20 05:46:06;;;;;;;2.80;1.60;;;;;;;12.86;66.07;101775.31;4872523;28;101097;-51
2022/09/20 05:49:37;;;;;;;2.53;1.60;;;;;;;12.86;66.08;101775.31;4884055;28;97454;-50
2022/09/20 05:52:48;;;;;;;3.27;1.40;;;;;;;12.90;66.22;101776.66;4870146;28;97018;-50
2022/09/20 05:55:32;;;;;;;5.80;0.90;;;;;;;12.94;66.14;101777.19;4874137;28;100704;-50
2022/09/20 05:58:26;;;;;;;2.30;1.00;;;;;;;12.96;66.20;101788.53;4891842;28;101574;-50
2022/09/20 06:00:58;;;;;;;3.23;0.90;;;;;;;12.99;66.00;101784.03;4882886;28;96921;-50
2022/09/20 06:03:40;;;;;;;1.20;1.10;;;;;;;13.04;65.97;101781.34;4882175;28;96890;-50
2022/09/20 06:06:20;;;;;;;6.40;1.73;;;;;;;13.07;66.08;101790.72;4895830;28;97253;-50
2022/09/20 06:09:30;;;;;;;2.70;1.20;;;;;;;13.10;66.22;101793.28;4888596;28;102238;-51
2022/09/20 06:12:20;;;;;;;2.07;1.30;;;;;;;13.14;66.18;101788.31;4892040;28;97450;-51
2022/09/20 06:15:18;;;;;;;3.40;2.07;;;;;;;13.15;66.25;101792.56;4869220;28;97234;-49
2022/09/20 06:18:12;;;;;;;2.20;1.80;;;;;;;13.20;66.15;101791.13;4866154;28;103312;-50
2022/09/20 06:20:54;;;;;;;5.60;2.17;;;;;;;13.23;66.10;101793.72;4895535;28;100174;-51
2022/09/20 06:23:20;;;;;;;2.13;1.80;;;;;;;13.25;65.94;101791.22;4880763;28;97517;-49
2022/09/20 06:25:48;;;;;;;2.57;1.93;;;;;;;13.28;66.06;101793.00;4889474;28;96867;-50
2022/09/20 06:28:20;;;;;;;2.27;1.97;;;;;;;13.32;65.96;101790.03;4879212;28;97733;-50
2022/09/20 06:30:52;;;;;;;6.27;2.00;;;;;;;13.33;66.12;101797.84;4885686;28;96951;-50
2022/09/20 06:33:24;;;;;;;1.67;1.50;;;;;;;13.36;66.24;101799.66;4872147;28;97423;-50
2022/09/20 06:41:25;;;;;;;2.03;1.93;;;;;;;13.38;66.24;101810.22;4889262;28;97040;-50
2022/09/20 06:41:42;;;;;;;2.50;1.20;;;;;;;13.44;66.22;101814.56;4894732;28;101451;-50
2022/09/20 06:44:07;;;;;;;6.70;2.00;;;;;;;13.46;66.10;101814.84;4883431;28;96845;-50
2022/09/20 06:46:34;;;;;;;5.40;1.93;;;;;;;13.49;65.96;101816.66;4870829;28;97316;-50
2022/09/20 06:49:01;;;;;;;1.30;1.13;;;;;;;13.51;66.34;101825.22;4888232;28;98302;-50
2022/09/20 06:51:32;;;;;;;2.20;1.23;;;;;;;13.53;66.30;101819.22;4895636;28;98322;-50
2022/09/20 06:53:58;;;;;;;1.73;1.30;;;;;;;13.53;66.12;101822.75;4887069;28;96741;-50
2022/09/20 06:56:26;;;;;;;3.13;1.83;;;;;;;13.60;66.19;101826.31;4884778;28;97175;-50
2022/09/20 06:58:53;;;;;;;2.67;2.10;;;;;;;13.65;66.15;101822.88;4873004;28;96742;-50
2022/09/20 07:01:21;;;;;;;1.83;1.00;;;;;;;13.70;66.33;101822.94;4890527;28;97214;-50
2022/09/20 07:03:47;;;;;;;5.17;1.53;;;;;;;13.73;66.29;101830.25;4884385;28;97242;-50
2022/09/20 07:06:18;;;;;;;5.80;1.30;;;;;;;13.77;66.41;101830.03;4871279;28;98111;-50
2022/09/20 07:08:46;;;;;;;6.87;1.40;;;;;;;13.79;66.47;101830.31;4885233;28;97371;-49
2022/09/20 07:11:15;;;;;;;5.63;1.53;;;;;;;13.82;66.51;101832.13;4870172;28;96991;-50
2022/09/20 07:13:48;;;;;;;3.07;1.83;;;;;;;13.87;66.46;101831.44;4888560;28;97634;-50
2022/09/20 07:16:13;;;;;;;4.40;1.73;;;;;;;13.90;66.41;101838.75;4882254;28;97404;-47
2022/09/20 07:18:42;;;;;;;1.43;1.20;;;;;;;13.95;66.19;101832.50;4889311;28;97379;-49
2022/09/20 07:21:11;;;;;;;1.33;1.10;;;;;;;14.00;66.31;101834.59;4894930;28;97176;-51
2022/09/20 07:23:36;;;;;;;1.30;1.20;;;;;;;14.02;66.36;101840.41;4880727;28;96986;-51
2022/09/20 07:26:01;;;;;;;1.73;1.53;;;;;;;14.07;66.33;101850.75;4888435;28;98566;-50
2022/09/20 07:28:28;;;;;;;3.17;1.43;;;;;;;14.11;66.21;101843.75;4883207;28;97388;-51
2022/09/20 07:30:53;;;;;;;3.67;0.97;;;;;;;14.17;66.37;101852.13;4875739;28;96843;-51
2022/09/20 07:33:20;;;;;;;2.30;1.53;;;;;;;14.20;66.31;101865.75;4888150;28;96846;-49
2022/09/20 07:35:48;;;;;;;1.33;1.23;;;;;;;14.22;66.36;101845.88;4878001;28;97121;-51
2022/09/20 07:38:14;;;;;;;4.77;1.80;;;;;;;14.25;66.35;101853.19;4887460;28;109540;-53
2022/09/20 07:40:40;;;;;;;1.43;1.00;;;;;;;14.27;66.26;101853.47;4884428;28;96930;-49
2022/09/20 07:43:06;;;;;;;1.30;1.17;;;;;;;14.29;66.40;101859.31;4864497;28;97487;-49
2022/09/20 07:45:33;;;;;;;2.50;1.60;;;;;;;14.31;66.42;101864.38;4883466;28;97081;-52
2022/09/20 07:48:04;;;;;;;2.60;1.43;;;;;;;14.33;66.35;101870.91;4892831;28;98260;-50
2022/09/20 07:50:29;;;;;;;2.20;0.83;;;;;;;14.41;66.50;101866.50;4882616;28;98510;-50
2022/09/20 07:52:56;;;;;;;5.33;0.90;;;;;;;14.44;66.41;101868.25;4893849;28;97054;-50
2022/09/20 07:55:21;;;;;;;1.30;0.80;;;;;;;14.49;66.27;101872.31;4878012;28;98236;-50
2022/09/20 07:57:47;;;;;;;2.73;1.17;;;;;;;14.52;66.49;101865.81;4883817;28;97594;-50
2022/09/20 08:00:13;;;;;;;0.90;0.90;;;;;;;14.52;66.60;101871.38;4896554;28;97582;-50
2022/09/20 08:02:38;;;;;;;2.60;1.10;;;;;;;14.58;66.68;101872.94;4876412;28;97036;-50
2022/09/20 08:05:04;;;;;;;4.87;1.30;;;;;;;14.66;66.74;101874.00;4884481;28;97652;-50
2022/09/20 08:07:29;;;;;;;1.50;0.90;;;;;;;14.74;66.56;101872.28;4884663;28;96848;-51
2022/09/20 08:09:55;;;;;;;6.50;1.23;;;;;;;14.82;66.58;101873.38;4866112;28;97048;-50
2022/09/20 08:12:21;;;;;;;3.07;1.07;;;;;;;14.86;66.55;101882.22;4891413;28;97024;-50
2022/09/20 08:14:47;;;;;;;1.03;0.93;;;;;;;14.92;66.54;101883.03;4887055;28;97382;-47
2022/09/20 08:17:12;;;;;;;8.13;1.00;;;;;;;15.00;66.52;101892.41;4870124;28;97589;-50
2022/09/20 08:19:38;;;;;;;2.13;0.70;;;;;;;15.08;66.35;101892.72;4881528;28;97150;-51
2022/09/20 08:22:05;;;;;;;4.30;1.20;;;;;;;15.18;66.38;101899.59;4869925;28;97105;-51
2022/09/20 08:24:31;;;;;;;2.50;1.10;;;;;;;15.28;66.32;101892.59;4887720;28;96806;-49
2022/09/20 08:26:57;;;;;;;1.47;0.90;;;;;;;15.39;66.34;101900.22;4889755;28;98841;-50
2022/09/20 08:29:22;;;;;;;0.90;0.67;;;;;;;15.48;66.11;101898.06;4873717;28;97444;-51
2022/09/20 08:31:48;;;;;;;1.33;0.80;;;;;;;15.53;66.01;101900.09;4888097;28;96863;-50
2022/09/20 08:34:14;;;;;;;3.33;1.37;;;;;;;15.58;66.16;101907.69;4902097;28;97795;-50
2022/09/20 08:36:45;;;;;;;4.47;1.00;;;;;;;15.58;65.94;101898.59;4872119;28;97724;-49
2022/09/20 08:39:11;;;;;;;1.77;0.80;;;;;;;15.62;66.29;101910.22;4866940;28;97599;-50
2022/09/20 08:42:11;;;;;;;1.43;0.80;;;;;;;15.74;66.26;101906.25;4855847;28;97550;-49
2022/09/20 08:45:12;;;;;;;1.80;0.43;;;;;;;15.80;65.82;101904.25;4875540;28;97627;-50
2022/09/20 08:47:47;;;;;;;2.70;0.83;;;;;;;15.88;65.87;101899.00;4879166;28;101768;-49
2022/09/20 08:50:14;;;;;;;1.17;0.40;;;;;;;15.94;65.65;101908.88;4884889;28;100070;-49
2022/09/20 08:52:44;;;;;;;3.23;0.80;;;;;;;15.99;65.65;101901.81;4891455;28;97070;-49
2022/09/20 08:55:19;;;;;;;4.30;1.10;;;;;;;16.04;65.23;101906.59;4876041;28;96978;-49
2022/09/20 08:57:51;;;;;;;5.13;1.00;;;;;;;16.10;65.62;101907.38;4891843;28;97163;-49
2022/09/20 09:00:20;;;;;;;1.93;0.80;;;;;;;16.20;65.70;101908.69;4888187;28;97347;-51
2022/09/20 09:02:45;;;;;;;0.93;0.60;;;;;;;16.30;65.60;101913.50;4890276;28;97347;-51
2022/09/20 09:05:32;;;;;;;3.30;0.80;;;;;;;16.41;65.51;101912.78;4893371;28;96960;-48
2022/09/20 09:08:34;;;;;;;3.97;0.83;;;;;;;16.36;65.54;101924.63;4892249;28;101173;-50
2022/09/20 09:11:11;;;;;;;2.90;1.63;;;;;;;16.30;65.15;101913.50;4890653;28;100284;-48
2022/09/20 09:13:55;;;;;;;2.93;0.80;;;;;;;16.27;65.27;101917.28;4876711;28;96862;-49
2022/09/20 09:16:23;;;;;;;4.10;0.60;;;;;;;16.30;65.24;101919.06;4891462;28;97098;-49
2022/09/20 09:18:50;;;;;;;0.77;0.50;;;;;;;16.37;65.23;101915.81;4884230;28;97522;-48
2022/09/20 09:21:17;;;;;;;1.73;0.63;;;;;;;16.44;65.08;101918.09;4889763;28;97659;-48
2022/09/20 09:23:50;;;;;;;2.50;0.93;;;;;;;16.48;64.69;101924.16;4883910;28;97738;-51
2022/09/20 09:26:19;;;;;;;3.37;0.70;;;;;;;16.48;64.55;101928.94;4893230;28;96914;-48
2022/09/20 09:28:46;;;;;;;0.73;0.70;;;;;;;16.41;64.40;101932.22;4890746;28;97864;-50
2022/09/20 09:31:21;;;;;;;2.30;0.70;;;;;;;16.36;64.54;101925.38;4876166;28;97219;-48
2022/09/20 09:33:46;;;;;;;6.60;0.70;;;;;;;16.41;64.82;101921.09;4894287;28;96772;-53
2022/09/20 09:36:21;;;;;;;2.37;0.60;;;;;;;16.53;64.28;101925.47;4871794;28;97228;-50
2022/09/20 09:38:47;;;;;;;4.27;0.77;;;;;;;16.63;64.34;101923.19;4891126;28;97960;-53
2022/09/20 09:41:39;;;;;;;4.00;0.80;;;;;;;16.73;63.53;101918.91;4884818;28;97177;-51
2022/09/20 09:44:22;;;;;;;6.90;1.27;;;;;;;16.87;63.44;101918.66;4879530;28;97456;-49
2022/09/20 09:46:49;;;;;;;7.33;1.30;;;;;;;17.03;63.91;101915.13;4878192;28;97534;-52
2022/09/20 09:49:17;;;;;;;4.23;0.70;;;;;;;17.14;63.26;101917.13;4892535;28;96834;-48
2022/09/20 09:52:03;;;;;;;2.47;0.77;;;;;;;17.16;62.58;101917.38;4875416;28;98186;-48
2022/09/20 09:54:35;;;;;;;1.77;0.60;;;;;;;17.22;63.29;101915.34;4883664;28;97381;-49
2022/09/20 09:57:19;;;;;;;2.67;0.70;;;;;;;17.33;62.39;101917.34;4889976;28;97228;-51
2022/09/20 10:00:16;;;;;;;5.40;1.37;;;;;;;17.33;62.09;101923.69;4874994;28;100708;-48
2022/09/20 10:03:03;;;;;;;2.80;0.73;;;;;;;17.25;62.70;101912.28;4882454;28;101273;-48
2022/09/20 10:06:03;;;;;;;1.97;1.17;;;;;;;17.15;62.52;101916.63;4884243;28;97696;-48
2022/09/20 10:09:09;;;;;;;2.87;1.23;;;;;;;17.00;62.37;101918.16;4880945;28;97363;-48
2022/09/20 10:12:16;;;;;;;3.37;0.70;;;;;;;16.96;62.55;101917.66;4879884;28;100546;-48
2022/09/20 10:14:53;;;;;;;7.23;1.10;;;;;;;17.03;62.88;101911.59;4891992;28;101757;-49
2022/09/20 10:17:51;;;;;;;4.47;0.70;;;;;;;17.20;62.76;101910.31;4875637;28;97322;-49
2022/09/20 10:20:45;;;;;;;1.63;1.00;;;;;;;17.39;62.78;101904.19;4871517;28;97740;-47
2022/09/20 10:23:13;;;;;;;2.53;0.90;;;;;;;17.55;62.54;101904.19;4897842;28;101662;-53
2022/09/20 10:25:53;;;;;;;2.80;0.80;;;;;;;17.59;62.20;101915.81;4879842;28;97797;-48
2022/09/20 10:28:56;;;;;;;3.70;0.60;;;;;;;17.54;60.55;101915.84;4892363;28;97120;-49
2022/09/20 10:31:46;;;;;;;7.73;1.00;;;;;;;17.45;61.29;101902.91;4887324;28;96969;-48
2022/09/20 10:34:24;;;;;;;1.20;0.60;;;;;;;17.54;62.19;101905.44;4893275;28;100570;-48
2022/09/20 10:36:56;;;;;;;1.63;0.60;;;;;;;17.67;62.35;101902.13;4878325;28;97851;-48
2022/09/20 10:39:34;;;;;;;1.27;0.70;;;;;;;17.76;60.75;101905.38;4884007;28;96733;-47
2022/09/20 10:45:30;;;;;;;1.37;0.60;;;;;;;17.98;61.16;101904.50;4886862;28;100364;-53
2022/09/20 10:48:06;;;;;;;2.53;0.60;;;;;;;18.12;60.61;101902.66;4885784;28;100987;-49
2022/09/20 10:50:51;;;;;;;4.57;1.13;;;;;;;18.09;60.15;101912.81;4893209;28;96827;-48
2022/09/20 10:53:50;;;;;;;2.63;0.70;;;;;;;18.08;59.17;101911.31;4878243;28;96702;-51
2022/09/20 10:56:35;;;;;;;1.80;1.10;;;;;;;17.87;58.46;101913.69;4876664;28;100650;-51
2022/09/20 10:59:23;;;;;;;3.63;1.30;;;;;;;17.83;59.25;101915.22;4891816;28;97052;-48
2022/09/20 11:02:32;;;;;;;1.57;0.60;;;;;;;17.83;59.28;101915.22;4889258;28;97229;-50
2022/09/20 11:05:28;;;;;;;3.90;0.70;;;;;;;17.80;58.91;101919.78;4888838;28;96646;-48
2022/09/20 11:08:15;;;;;;;1.70;0.70;;;;;;;17.77;59.78;101915.25;4876533;28;98726;-48
2022/09/20 11:10:48;;;;;;;6.27;1.10;;;;;;;17.78;59.41;101918.75;4873135;28;100305;-54
2022/09/20 11:13:37;;;;;;;3.07;0.57;;;;;;;17.76;57.79;101924.09;4886743;28;97175;-48
2022/09/20 11:16:12;;;;;;;1.83;0.70;;;;;;;17.75;59.19;101917.78;4875715;28;96888;-48
2022/09/20 11:18:50;;;;;;;1.73;1.00;;;;;;;17.80;59.86;101928.13;4888864;28;97169;-48
2022/09/20 11:21:40;;;;;;;4.40;0.83;;;;;;;17.96;59.65;101932.13;4873187;28;101714;-49
2022/09/20 11:24:31;;;;;;;4.10;0.83;;;;;;;18.28;58.38;101927.66;4879381;28;96895;-48
2022/09/20 11:27:03;;;;;;;1.17;0.60;;;;;;;18.58;58.22;101924.97;4889064;28;97577;-49
2022/09/20 11:29:41;;;;;;;1.90;0.80;;;;;;;18.76;58.24;101938.28;4887345;28;97786;-49
2022/09/20 11:32:24;;;;;;;5.73;1.07;;;;;;;18.78;57.29;101924.56;4886082;28;101761;-51
2022/09/20 11:34:52;;;;;;;4.17;0.87;;;;;;;18.74;58.17;101934.50;4891782;28;97335;-48
2022/09/20 11:37:19;;;;;;;2.00;0.80;;;;;;;18.67;58.18;101930.22;4886411;28;97189;-48
2022/09/20 11:39:53;;;;;;;2.67;1.07;;;;;;;18.59;56.83;101940.41;4870579;28;97354;-48
2022/09/20 11:42:31;;;;;;;2.30;0.70;;;;;;;18.45;56.89;101941.53;4895065;28;100063;-52
2022/09/20 11:44:57;;;;;;;1.40;0.60;;;;;;;18.38;57.93;101939.25;4888236;28;96630;-49
2022/09/20 11:47:30;;;;;;;1.53;0.60;;;;;;;18.45;57.72;101936.72;4886556;28;96971;-48
2022/09/20 11:50:37;;;;;;;3.27;0.90;;;;;;;18.58;57.17;101938.91;4869450;28;97218;-48
2022/09/20 11:53:40;;;;;;;3.30;0.83;;;;;;;18.88;56.34;101939.69;4878290;28;102920;-48
2022/09/20 11:56:21;;;;;;;4.30;0.90;;;;;;;19.03;54.85;101940.06;4871010;28;97709;-56
2022/09/20 11:58:56;;;;;;;1.07;0.60;;;;;;;19.15;55.70;101924.75;4888295;28;97072;-48
2022/09/20 12:01:27;;;;;;;1.27;0.80;;;;;;;19.41;56.10;101929.84;4893897;28;100550;-49
2022/09/20 12:03:57;;;;;;;1.17;0.67;;;;;;;19.70;56.00;101928.28;4888157;28;97170;-48
2022/09/20 12:06:32;;;;;;;2.37;0.80;;;;;;;19.83;54.29;101925.59;4874131;28;97447;-49
2022/09/20 12:09:01;;;;;;;2.20;0.80;;;;;;;19.79;55.55;101930.72;4879555;28;97375;-50
2022/09/20 12:11:35;;;;;;;2.60;0.73;;;;;;;19.78;54.41;101929.19;4873402;28;98106;-51
2022/09/20 12:14:15;;;;;;;1.80;0.70;;;;;;;19.68;55.16;101931.56;4880301;28;97375;-47
2022/09/20 12:16:43;;;;;;;0.80;0.50;;;;;;;19.53;55.07;101939.63;4880436;28;96946;-50
2022/09/20 12:19:12;;;;;;;1.43;0.53;;;;;;;19.50;54.95;101937.13;4885865;28;97073;-51
2022/09/20 12:21:56;;;;;;;0.77;0.43;;;;;;;19.56;52.68;101935.78;4869098;28;97310;-48
2022/09/20 12:24:28;;;;;;;1.10;0.63;;;;;;;19.77;54.75;101938.84;4879340;28;97219;-49
2022/09/20 12:26:58;;;;;;;3.50;0.80;;;;;;;19.98;54.25;101948.25;4882465;28;97417;-52